Big Cabin, Oklahoma
Current Conditions -  °F | °C
As of 6:15 AM on Thursday 18 Dec 2014 (Local Time) from KGCM Reporting Station
Haze Haze  
Wind Chill: 31°   Ceiling: 300
Heat Index: 36°   Visibility: 3mi
Dew Point: 34°   Wind: 6mph
Humidity: 93%   Direction: 140°SE
Pressure: 30.19"   Gusts: NA
Location:  36.54°N, 95.22°W
Report Text: KGCM 181215Z AUTO 14005KT 3SM BR OVC003 02/01 A3019 RMK AO2
Loading
Personal Weather Stations






























Interactive Weather Map New forecast layout! Learn more

10-Day Weather Forecast

Advertisements
Track Severe Weather on mobile